Time;durP1;ratioP1;P1;durP2;ratioP2;P2;SDS_P1;SDS_P2;PMS_P1;PMS_P2;Temp;Humidity;BMP_temperature;BMP_pressure;BME280_temperature;BME280_humidity;BME280_pressure;Samples;Min_cycle;Max_cycle;Signal;HPM_P1;HPM_P2
2022/02/13 00:00:48;;;;;;;10.73;4.13;;;;;;;;;;6281365;22;20019;-96
2022/02/13 00:03:14;;;;;;;8.00;3.00;;;;;;;;;;6281125;22;20000;-96
2022/02/13 00:05:40;;;;;;;14.38;5.88;;;;;;;;;;6254857;22;20015;-95
2022/02/13 00:08:06;;;;;;;10.68;3.85;;;;;;;;;;6282346;22;20077;-96
2022/02/13 00:10:32;;;;;;;6.18;3.83;;;;;;;;;;6281109;22;20007;-95
2022/02/13 00:12:58;;;;;;;14.90;4.40;;;;;;;;;;6253698;22;19999;-95
2022/02/13 00:15:24;;;;;;;6.40;3.42;;;;;;;;;;6281089;22;20022;-95
2022/02/13 00:17:50;;;;;;;8.55;3.70;;;;;;;;;;6254646;22;20004;-95
2022/02/13 00:20:17;;;;;;;7.50;3.28;;;;;;;;;;6281236;22;20027;-95
2022/02/13 00:22:43;;;;;;;7.68;3.97;;;;;;;;;;6280902;22;20012;-95
2022/02/13 00:25:09;;;;;;;12.40;4.75;;;;;;;;;;6280908;22;20098;-95
2022/02/13 00:27:36;;;;;;;6.38;3.35;;;;;;;;;;6281394;22;20085;-95
2022/02/13 00:30:03;;;;;;;20.60;6.97;;;;;;;;;;6254252;22;20012;-95
2022/02/13 00:32:29;;;;;;;9.77;3.60;;;;;;;;;;6281750;22;20015;-96
2022/02/13 00:34:55;;;;;;;10.05;4.75;;;;;;;;;;6281531;22;20019;-95
2022/02/13 00:37:21;;;;;;;9.80;4.05;;;;;;;;;;6228543;22;20008;-96
2022/02/13 00:39:47;;;;;;;7.50;3.92;;;;;;;;;;6281754;22;20004;-94
2022/02/13 00:42:13;;;;;;;13.40;4.85;;;;;;;;;;6281561;22;20007;-96
2022/02/13 00:44:39;;;;;;;8.43;4.45;;;;;;;;;;6280871;22;20473;-95
2022/02/13 00:47:06;;;;;;;13.00;4.72;;;;;;;;;;6281726;22;20000;-96
2022/02/13 00:49:32;;;;;;;9.02;3.70;;;;;;;;;;6253558;22;20042;-96
2022/02/13 00:51:58;;;;;;;10.00;4.10;;;;;;;;;;6280730;22;20056;-95
2022/02/13 00:54:24;;;;;;;5.38;3.83;;;;;;;;;;6253520;22;20023;-95
2022/02/13 00:56:50;;;;;;;7.20;3.40;;;;;;;;;;6280416;22;20003;-95
2022/02/13 00:59:17;;;;;;;8.48;3.85;;;;;;;;;;6253819;22;20007;-94
2022/02/13 01:01:43;;;;;;;7.93;4.05;;;;;;;;;;6253692;22;20465;-96
2022/02/13 01:04:09;;;;;;;19.88;4.93;;;;;;;;;;6280156;22;20510;-95
2022/02/13 01:06:35;;;;;;;13.20;4.47;;;;;;;;;;6281017;22;20003;-95
2022/02/13 01:09:01;;;;;;;11.38;4.47;;;;;;;;;;6253938;22;19996;-95
2022/02/13 01:11:27;;;;;;;11.60;4.13;;;;;;;;;;6279871;22;20007;-96
2022/02/13 01:13:54;;;;;;;12.98;4.13;;;;;;;;;;6280956;22;20382;-96
2022/02/13 01:16:20;;;;;;;15.70;4.72;;;;;;;;;;6253329;22;20086;-95
2022/02/13 01:18:46;;;;;;;15.18;4.97;;;;;;;;;;6253767;22;20061;-96
2022/02/13 01:21:12;;;;;;;15.30;5.72;;;;;;;;;;6281557;22;20051;-95
2022/02/13 01:23:42;;;;;;;9.10;4.55;;;;;;;;;;6253296;22;20011;-95
2022/02/13 01:26:08;;;;;;;8.77;3.63;;;;;;;;;;6280490;22;20008;-95
2022/02/13 01:28:35;;;;;;;16.08;5.75;;;;;;;;;;6280579;22;20373;-95
2022/02/13 01:31:02;;;;;;;6.15;3.15;;;;;;;;;;6280191;22;20007;-96
2022/02/13 01:33:31;;;;;;;14.88;4.05;;;;;;;;;;6280098;22;20071;-96
2022/02/13 01:36:00;;;;;;;9.48;3.97;;;;;;;;;;6280066;22;20003;-96
2022/02/13 01:38:26;;;;;;;9.23;3.65;;;;;;;;;;6277151;22;19999;-94
2022/02/13 01:40:53;;;;;;;15.43;4.28;;;;;;;;;;6277643;22;20018;-96
2022/02/13 01:43:19;;;;;;;9.48;5.43;;;;;;;;;;6250429;22;20008;-95
2022/02/13 01:45:45;;;;;;;15.27;5.82;;;;;;;;;;6277106;22;20019;-95
2022/02/13 01:48:12;;;;;;;8.52;3.45;;;;;;;;;;6276524;22;20025;-94
2022/02/13 01:50:39;;;;;;;13.77;4.10;;;;;;;;;;6250078;22;20010;-95
2022/02/13 01:53:05;;;;;;;7.10;3.70;;;;;;;;;;6277272;22;20016;-95
2022/02/13 01:55:31;;;;;;;5.07;3.45;;;;;;;;;;6250243;22;20238;-93
2022/02/13 01:57:57;;;;;;;13.65;4.20;;;;;;;;;;6277249;22;20000;-94
2022/02/13 02:00:27;;;;;;;7.53;5.30;;;;;;;;;;6277205;22;20011;-95
2022/02/13 02:02:53;;;;;;;9.40;3.78;;;;;;;;;;6250285;22;20061;-95
2022/02/13 02:05:19;;;;;;;11.88;4.32;;;;;;;;;;6250688;22;20625;-96
2022/02/13 02:07:45;;;;;;;12.82;5.40;;;;;;;;;;6250537;22;20032;-95
2022/02/13 02:10:12;;;;;;;5.72;3.00;;;;;;;;;;6277966;22;20059;-95
2022/02/13 02:12:39;;;;;;;10.73;4.30;;;;;;;;;;6251390;22;20006;-95
2022/02/13 02:15:07;;;;;;;10.03;3.97;;;;;;;;;;6278103;22;20000;-95
2022/02/13 02:17:34;;;;;;;6.43;3.30;;;;;;;;;;6278404;22;20215;-96
2022/02/13 02:20:00;;;;;;;5.47;2.53;;;;;;;;;;6278660;22;20031;-96
2022/02/13 02:22:26;;;;;;;18.05;4.20;;;;;;;;;;6278655;22;20061;-95
2022/02/13 02:24:52;;;;;;;13.75;4.15;;;;;;;;;;6252171;22;20043;-96
2022/02/13 02:27:18;;;;;;;15.15;3.67;;;;;;;;;;6252101;22;20002;-95
2022/02/13 02:29:44;;;;;;;5.43;3.42;;;;;;;;;;6278610;22;20025;-95
2022/02/13 02:32:11;;;;;;;8.85;3.85;;;;;;;;;;6277757;22;20008;-94
2022/02/13 02:34:40;;;;;;;17.67;4.07;;;;;;;;;;6277431;22;20014;-95
2022/02/13 02:37:07;;;;;;;6.32;3.70;;;;;;;;;;6277107;22;20004;-95
2022/02/13 02:39:33;;;;;;;6.78;3.40;;;;;;;;;;6277732;22;20061;-94
2022/02/13 02:42:00;;;;;;;8.25;3.65;;;;;;;;;;6250177;22;19996;-94
2022/02/13 02:44:26;;;;;;;5.68;3.42;;;;;;;;;;6276603;22;20045;-95
2022/02/13 02:46:52;;;;;;;15.60;4.35;;;;;;;;;;6276696;22;20004;-95
2022/02/13 02:49:18;;;;;;;5.40;3.10;;;;;;;;;;6277353;22;20011;-95
2022/02/13 02:51:44;;;;;;;5.10;2.65;;;;;;;;;;6250329;22;20008;-95
2022/02/13 02:54:10;;;;;;;6.47;3.33;;;;;;;;;;6249953;22;20012;-94
2022/02/13 02:56:36;;;;;;;9.60;2.88;;;;;;;;;;6276952;22;20007;-96
2022/02/13 02:59:03;;;;;;;13.20;3.92;;;;;;;;;;6277234;22;20462;-95
2022/02/13 03:01:30;;;;;;;7.75;2.70;;;;;;;;;;6276942;22;20079;-95
2022/02/13 03:03:56;;;;;;;9.35;3.70;;;;;;;;;;6249309;22;20011;-95
2022/02/13 03:06:22;;;;;;;4.18;2.53;;;;;;;;;;6277021;22;20071;-95
2022/02/13 03:08:48;;;;;;;11.23;3.72;;;;;;;;;;6276752;22;20011;-95
2022/02/13 03:11:14;;;;;;;5.18;3.33;;;;;;;;;;6277172;22;20010;-96
2022/02/13 03:13:41;;;;;;;4.90;3.25;;;;;;;;;;6249706;22;20089;-95
2022/02/13 03:16:07;;;;;;;6.60;3.03;;;;;;;;;;6276414;22;20007;-95
2022/02/13 03:18:33;;;;;;;5.88;4.00;;;;;;;;;;6276692;22;20033;-94
2022/02/13 03:21:00;;;;;;;4.05;2.13;;;;;;;;;;6249238;22;20003;-95
2022/02/13 03:23:26;;;;;;;8.98;1.85;;;;;;;;;;6276646;22;20007;-94
2022/02/13 03:25:52;;;;;;;7.82;2.83;;;;;;;;;;6276450;22;20016;-96
2022/02/13 03:28:18;;;;;;;6.53;2.75;;;;;;;;;;6249883;22;20027;-95
2022/02/13 03:30:46;;;;;;;5.38;2.47;;;;;;;;;;6219876;23;20028;-95
2022/02/13 03:33:12;;;;;;;5.20;1.92;;;;;;;;;;6246141;23;20001;-95
2022/02/13 03:35:39;;;;;;;4.90;2.72;;;;;;;;;;6245857;23;20000;-95
2022/02/13 03:38:05;;;;;;;3.60;1.77;;;;;;;;;;6245633;23;20008;-95
2022/02/13 03:40:32;;;;;;;5.30;4.07;;;;;;;;;;6245908;23;20012;-95
2022/02/13 03:42:58;;;;;;;4.87;1.97;;;;;;;;;;6246367;23;20231;-95
2022/02/13 03:45:24;;;;;;;8.50;2.58;;;;;;;;;;6245867;23;20012;-96
2022/02/13 03:47:50;;;;;;;5.45;2.33;;;;;;;;;;6247009;23;20003;-95
2022/02/13 03:50:16;;;;;;;8.07;3.65;;;;;;;;;;6247800;23;20012;-94
2022/02/13 03:52:42;;;;;;;3.60;2.50;;;;;;;;;;6221127;22;20007;-94
2022/02/13 03:55:11;;;;;;;11.30;3.45;;;;;;;;;;6221067;23;20089;-93
2022/02/13 03:57:37;;;;;;;5.53;2.38;;;;;;;;;;6247743;23;20040;-94
2022/02/13 04:00:03;;;;;;;4.63;2.28;;;;;;;;;;6247526;23;20110;-95
2022/02/13 04:02:29;;;;;;;4.55;2.42;;;;;;;;;;6220509;23;20000;-95
2022/02/13 04:04:57;;;;;;;2.72;2.53;;;;;;;;;;6247387;23;20023;-95
2022/02/13 04:07:23;;;;;;;;;;;7.30;77.20;;;;;;6248257;23;20028;-95
2022/02/13 04:09:49;;;;;;;3.42;1.77;;;;;;;;;;6221275;23;19900;-94
2022/02/13 04:12:15;;;;;;;4.53;2.10;;;;;;;;;;6221074;23;20011;-95
2022/02/13 04:14:41;;;;;;;4.90;1.83;;;;;;;;;;6247372;23;20004;-96
2022/02/13 04:17:07;;;;;;;5.53;2.08;;;;;;;;;;6221239;23;20040;-94
2022/02/13 04:19:33;;;;;;;6.70;2.33;;;;;;;;;;6220598;23;20439;-94
2022/02/13 04:21:59;;;;;;;6.57;2.53;;;;;;;;;;6247838;23;20076;-96
2022/02/13 04:24:25;;;;;;;6.30;2.40;;;;;;;;;;6220584;23;20008;-96
2022/02/13 04:26:51;;;;;;;11.07;2.40;;;;;;;;;;6247305;23;20514;-95
2022/02/13 04:29:18;;;;;;;5.50;2.53;;;;;;;;;;6247311;23;20015;-95
2022/02/13 04:31:44;;;;;;;2.38;1.70;;;;;;;;;;6247251;23;20435;-94
2022/02/13 04:34:12;;;;;;;7.18;3.05;;;;;;;;;;6247261;23;20008;-95
2022/02/13 04:36:38;;;;;;;2.60;1.73;;;;;;;;;;6248473;23;20031;-95
2022/02/13 04:39:04;;;;;;;3.75;1.75;;;;;;;;;;6220549;23;20095;-95
2022/02/13 04:41:30;;;;;;;2.23;1.43;;;;;;;;;;6220750;23;20005;-95
2022/02/13 04:44:02;;;;;;;4.47;2.33;;;;;;;;;;6249094;23;20012;-95
2022/02/13 04:46:28;;;;;;;2.17;1.92;;;;;;;;;;6250546;23;20087;-94
2022/02/13 04:48:55;;;;;;;5.25;2.85;;;;;;;;;;6258940;23;20004;-95
2022/02/13 04:51:21;;;;;;;9.60;2.53;;;;;;;;;;6222795;23;20008;-95
2022/02/13 04:53:47;;;;;;;4.30;2.25;;;;;;;;;;6249286;22;20508;-96
2022/02/13 04:56:13;;;;;;;5.10;2.22;;;;;;;;;;6249650;23;20074;-96
2022/02/13 04:58:39;;;;;;;3.38;1.63;;;;;;;;;;6250103;23;20031;-95
2022/02/13 05:01:05;;;;;;;4.60;2.15;;;;;;;;;;6249911;23;20004;-96
2022/02/13 05:03:31;;;;;;;8.35;2.90;;;;;;;;;;6223687;23;20004;-95
2022/02/13 05:05:57;;;;;;;2.13;1.58;;;;;;;;;;6249282;23;20095;-96
2022/02/13 05:08:23;;;;;;;3.30;1.40;;;;;;;;;;6248514;23;20695;-95
2022/02/13 05:10:49;;;;;;;3.58;2.30;;;;;;;;;;6249236;23;20054;-95
2022/02/13 05:13:15;;;;;;;3.42;2.13;;;;;;;;;;6222260;23;20000;-95
2022/02/13 05:15:50;;;;;;;4.13;2.03;;;;;;;;;;6225107;23;20000;-96
2022/02/13 05:18:16;;;;;;;8.45;2.92;;;;;;;;;;6250019;23;20011;-96
2022/02/13 05:20:42;;;;;;;3.45;2.17;;;;;;;;;;6249092;23;19996;-95
2022/02/13 05:23:08;;;;;;;10.00;2.42;;;;;;;;;;6222086;23;20019;-95
2022/02/13 05:25:34;;;;;;;2.83;1.90;;;;;;;;;;6249075;23;20008;-96
2022/02/13 05:28:01;;;;;;;6.82;2.60;;;;;;;;;;6250112;23;20011;-95
2022/02/13 05:30:27;;;;;;;4.05;2.63;;;;;;;;;;6249117;23;20008;-95
2022/02/13 05:32:53;;;;;;;10.25;3.78;;;;;;;;;;6248887;23;20066;-94
2022/02/13 05:35:19;;;;;;;4.05;2.50;;;;;;;;;;6248878;23;20026;-96
2022/02/13 05:37:47;;;;;;;5.60;2.05;;;;;;;;;;6248568;23;20008;-95
2022/02/13 05:40:13;;;;;;;4.03;2.30;;;;;;;;;;6249450;23;20011;-94
2022/02/13 05:42:39;;;;;;;4.20;1.80;;;;;;;;;;6223577;23;20447;-96
2022/02/13 05:45:06;;;;;;;4.00;1.90;;;;;;;;;;6248498;23;20012;-95
2022/02/13 05:47:32;;;;;;;3.27;1.80;;;;;;;;;;6222979;23;20012;-96
2022/02/13 05:49:58;;;;;;;5.68;1.85;;;;;;;;;;6249985;23;20023;-95
2022/02/13 05:52:24;;;;;;;3.53;2.28;;;;;;;;;;6222520;23;20007;-95
2022/02/13 05:54:50;;;;;;;2.92;2.13;;;;;;;;;;6249092;22;20020;-95
2022/02/13 05:57:16;;;;;;;4.07;2.58;;;;;;;;;;6249377;23;20004;-96
2022/02/13 05:59:42;;;;;;;2.08;1.88;;;;;;;;;;6249840;23;20008;-95
2022/02/13 06:02:08;;;;;;;8.10;2.65;;;;;;;;;;6250366;23;20000;-96
2022/02/13 06:04:34;;;;;;;4.18;1.95;;;;;;;;;;6224600;23;20366;-95
2022/02/13 06:07:00;;;;;;;7.10;1.95;;;;;;;;;;6224004;23;20007;-96
2022/02/13 06:09:26;;;;;;;3.97;1.75;;;;;;;;;;6248995;23;20004;-95
2022/02/13 06:11:52;;;;;;;2.92;1.65;;;;;;;;;;6249072;23;20024;-95
2022/02/13 06:14:20;;;;;;;2.30;1.60;;;;;;;;;;6222843;23;20008;-95
2022/02/13 06:16:46;;;;;;;10.00;2.50;;;;;;;;;;6249038;23;20004;-95
2022/02/13 06:19:12;;;;;;;4.10;1.90;;;;;;;;;;6248123;23;20000;-95
2022/02/13 06:21:38;;;;;;;5.28;2.88;;;;;;;;;;6249515;23;20099;-95
2022/02/13 06:24:04;;;;;;;4.60;2.13;;;;;;;;;;6248942;23;20734;-94
2022/02/13 06:26:35;;;;;;;3.47;2.17;;;;;;;;;;6222624;23;20087;-94
2022/02/13 06:29:01;;;;;;;3.35;2.05;;;;;;;;;;6249841;23;20012;-95
2022/02/13 06:31:27;;;;;;;5.20;1.98;;;;;;;;;;6222392;23;20062;-95
2022/02/13 06:33:53;;;;;;;5.95;2.10;;;;;;;;;;6221920;23;20063;-96
2022/02/13 06:36:20;;;;;;;4.80;1.50;;;;;;;;;;6221689;23;21084;-95
2022/02/13 06:38:46;;;;;;;3.72;2.10;;;;;;;;;;6223467;23;20035;-96
2022/02/13 06:41:13;;;;;;;2.35;1.70;;;;;;;;;;6223617;23;20086;-95
2022/02/13 06:43:39;;;;;;;4.15;2.40;;;;;;;;;;6249632;23;20427;-96
2022/02/13 06:46:05;;;;;;;4.38;1.60;;;;;;;;;;6249187;23;20005;-95
2022/02/13 06:48:31;;;;;;;2.40;1.25;;;;;;;;;;6248551;23;20004;-96
2022/02/13 06:50:58;;;;;;;2.45;1.75;;;;;;;;;;6250498;23;20465;-95
2022/02/13 06:53:24;;;;;;;3.58;1.35;;;;;;;;;;6216732;23;20670;-95
2022/02/13 06:55:51;;;;;;;10.48;2.88;;;;;;;;;;6218142;23;20001;-94
2022/02/13 06:58:20;;;;;;;5.63;2.37;;;;;;;;;;6217131;23;20019;-95
2022/02/13 07:00:47;;;;;;;13.57;4.47;;;;;;;;;;6218889;23;20498;-95
2022/02/13 07:03:13;;;;;;;23.75;7.70;;;;;;;;;;6221433;23;20773;-95
2022/02/13 07:05:39;;;;;;;7.90;3.83;;;;;;;;;;6218471;23;20032;-95
2022/02/13 07:08:05;;;;;;;16.67;3.90;;;;;;;;;;6220999;23;20440;-96
2022/02/13 07:10:31;;;;;;;10.82;2.72;;;;;;;;;;6219651;23;20501;-95
2022/02/13 07:12:57;;;;;;;3.70;2.88;;;;;;;;;;6219844;23;20008;-94
2022/02/13 07:15:23;;;;;;;8.25;4.47;;;;;;;;;;6219391;23;19997;-95
2022/02/13 07:17:50;;;;;;;5.68;2.70;;;;;;;;;;6221354;23;20019;-95
2022/02/13 07:20:16;;;;;;;4.25;2.30;;;;;;;;;;6221190;23;20005;-95
2022/02/13 07:22:42;;;;;;;13.13;4.00;;;;;;;;;;6223379;23;20009;-96
2022/02/13 07:25:09;;;;;;;7.05;4.53;;;;;;;;;;6223910;23;20301;-95
2022/02/13 07:27:35;;;;;;;6.20;4.45;;;;;;;;;;6224031;23;20005;-94
2022/02/13 07:30:02;;;;;;;8.07;3.97;;;;;;;;;;6223752;23;20012;-95
2022/02/13 07:32:28;;;;;;;2.20;2.00;;;;;;;;;;6223697;23;20028;-95
2022/02/13 07:34:54;;;;;;;12.25;4.80;;;;;;;;;;6223697;23;20005;-96
2022/02/13 07:37:20;;;;;;;2.58;2.17;;;;;;;;;;6221652;23;20001;-95
2022/02/13 07:39:47;;;;;;;9.07;4.15;;;;;;;;;;6223738;23;20027;-95
2022/02/13 07:42:13;;;;;;;7.47;3.60;;;;;;;;;;6228229;23;20013;-95
2022/02/13 07:44:41;;;;;;;15.50;2.30;;;;;;;;;;6227905;23;20017;-96
2022/02/13 07:47:07;;;;;;;4.28;2.08;;;;;;;;;;6226876;23;20021;-94
2022/02/13 07:49:33;;;;;;;7.95;3.95;;;;;;;;;;6225555;23;20004;-96
2022/02/13 07:52:00;;;;;;;6.93;1.50;;;;;;;;;;6226458;23;20530;-95
2022/02/13 07:54:27;;;;;;;1.88;1.45;;;;;;;;;;6249429;22;20036;-96
2022/02/13 07:56:53;;;;;;;4.28;2.55;;;;;;;;;;6255116;23;20011;-95
2022/02/13 07:59:22;;;;;;;3.17;2.10;;;;;;;;;;6258039;23;20000;-95
2022/02/13 08:01:53;;;;;;;6.05;2.65;;;;;;;;;;6263989;22;19995;-96
2022/02/13 08:04:19;;;;;;;11.70;1.88;;;;;;;;;;6229377;23;20019;-96
2022/02/13 08:06:46;;;;;;;8.48;2.42;;;;;;;;;;6255639;23;20124;-96
2022/02/13 08:09:13;;;;;;;1.65;1.55;;;;;;;;;;6205230;23;20015;-96
2022/02/13 08:11:40;;;;;;;2.47;1.77;;;;;;;;;;6255562;23;20314;-95
2022/02/13 08:14:06;;;;;;;4.07;2.15;;;;;;;;;;6255347;23;20012;-96
2022/02/13 08:16:32;;;;;;;2.97;1.83;;;;;;;;;;6229071;23;20004;-96
2022/02/13 08:19:00;;;;;;;3.73;1.73;;;;;;;;;;6255763;23;20004;-96
2022/02/13 08:21:26;;;;;;;5.93;3.10;;;;;;;;;;6255097;23;20004;-95
2022/02/13 08:23:53;;;;;;;9.75;3.28;;;;;;;;;;6203775;23;20008;-95
2022/02/13 08:26:19;;;;;;;7.75;4.13;;;;;;;;;;6255761;23;20018;-95
2022/02/13 08:28:46;;;;;;;2.83;1.85;;;;;;;;;;6230049;23;20027;-95
2022/02/13 08:31:14;;;;;;;4.13;1.85;;;;;;;;;;6256246;23;20008;-95
2022/02/13 08:33:41;;;;;;;;;;;15.60;48.50;;;;;;6229922;23;20052;-95
2022/02/13 08:36:08;;;;;;;3.85;2.22;;;;;;;;;;6255403;23;19927;-96
2022/02/13 08:38:35;;;;;;;9.77;5.38;;;;;;;;;;6255862;23;20004;-94
2022/02/13 08:41:02;;;;;;;9.40;6.05;;;;;;;;;;6258050;23;20023;-95
2022/02/13 08:43:29;;;;;;;10.77;2.85;;;;;;;;;;6257349;23;20431;-96
2022/02/13 08:45:56;;;;;;;20.30;7.05;;;;;;;;;;6256795;23;20028;-94
2022/02/13 08:48:23;;;;;;;17.23;5.88;;;;;;;;;;6256917;23;20004;-96
2022/02/13 08:50:49;;;;;;;15.13;4.28;;;;;;;;;;6179938;23;20020;-95
2022/02/13 08:53:16;;;;;;;12.40;4.55;;;;;;;;;;6230969;22;20039;-95
2022/02/13 08:55:44;;;;;;;8.05;2.22;;;;;;;;;;6259030;23;20000;-95
2022/02/13 08:58:12;;;;;;;6.22;2.60;;;;;;;;;;6254535;23;20008;-95
2022/02/13 09:00:39;;;;;;;;;;;18.40;41.40;;;;;;6259170;23;20427;-95
2022/02/13 09:03:06;;;;;;;;;;;18.40;41.70;;;;;;6232717;23;19899;-95
2022/02/13 09:05:34;;;;;;;3.22;2.30;;;;;;;;;;6231795;23;19907;-95
2022/02/13 09:08:02;;;;;;;4.25;1.80;;;;;;;;;;6259108;23;20027;-95
2022/02/13 09:10:31;;;;;;;5.75;3.00;;;;;;;;;;6232586;23;20012;-95
2022/02/13 09:13:01;;;;;;;12.15;5.15;;;;;;;;;;6258203;23;20012;-95
2022/02/13 09:15:30;;;;;;;6.82;2.45;;;;;;;;;;6230558;23;20012;-95
2022/02/13 09:17:56;;;;;;;1.90;1.42;;;;;;;;;;6255332;23;20007;-94
2022/02/13 09:20:26;;;;;;;4.97;1.55;;;;;;;;;;6259210;23;20030;-94
2022/02/13 09:22:52;;;;;;;4.15;2.00;;;;;;;;;;6232054;23;20000;-95
2022/02/13 09:25:20;;;;;;;9.70;1.83;;;;;;;;;;6258457;23;20008;-95
2022/02/13 09:27:46;;;;;;;3.83;1.42;;;;;;;;;;6255521;23;20052;-95
2022/02/13 09:30:13;;;;;;;5.45;2.28;;;;;;;;;;6230959;23;20000;-95
2022/02/13 09:32:41;;;;;;;6.13;1.85;;;;;;;;;;6257166;23;20008;-95
2022/02/13 09:35:08;;;;;;;3.88;1.80;;;;;;;;;;6230183;23;20030;-96
2022/02/13 09:37:35;;;;;;;3.13;1.55;;;;;;;;;;6255087;23;20089;-95
2022/02/13 09:40:01;;;;;;;4.78;1.73;;;;;;;;;;6256614;23;20090;-95
2022/02/13 09:42:28;;;;;;;3.88;1.65;;;;;;;;;;6256579;23;20031;-96
2022/02/13 09:44:54;;;;;;;2.75;1.60;;;;;;;;;;6253769;23;20454;-96
2022/02/13 09:47:22;;;;;;;3.55;1.30;;;;;;;;;;6231716;23;20012;-95
2022/02/13 09:49:50;;;;;;;3.40;1.17;;;;;;;;;;6205651;23;20012;-95
2022/02/13 09:52:18;;;;;;;1.35;1.20;;;;;;;;;;6228449;23;20067;-96
2022/02/13 09:54:44;;;;;;;5.07;1.35;;;;;;;;;;6229031;23;20044;-94
2022/02/13 09:59:55;;;;;;;4.28;1.20;;;;;;;;;;6256079;23;20019;-95
2022/02/13 10:02:33;;;;;;;3.20;1.33;;;;;;;;;;6249727;23;20024;-95
2022/02/13 10:05:02;;;;;;;3.45;1.65;;;;;;;;;;6251490;23;20012;-95
2022/02/13 10:07:28;;;;;;;3.38;1.40;;;;;;;;;;6225798;23;20011;-95
2022/02/13 10:09:58;;;;;;;1.63;1.17;;;;;;;;;;6226862;23;20012;-95
2022/02/13 10:12:41;;;;;;;2.38;1.15;;;;;;;;;;6255593;23;20004;-94
2022/02/13 10:15:23;;;;;;;8.13;1.50;;;;;;;;;;6251785;23;20462;-95
2022/02/13 10:18:01;;;;;;;2.95;1.08;;;;;;;;;;6253166;23;20004;-95
2022/02/13 10:20:34;;;;;;;5.38;1.48;;;;;;;;;;6226099;23;20011;-95
2022/02/13 10:23:07;;;;;;;2.20;1.27;;;;;;;;;;6254460;23;20087;-96
2022/02/13 10:25:33;;;;;;;4.28;1.10;;;;;;;;;;6250441;23;20048;-95
2022/02/13 10:28:08;;;;;;;2.88;1.33;;;;;;;;;;6253100;23;20083;-94
2022/02/13 10:30:37;;;;;;;26.52;3.67;;;;;;;;;;6251785;23;20004;-95
2022/02/13 10:33:13;;;;;;;2.78;1.00;;;;;;;;;;6252581;23;20008;-95
2022/02/13 10:35:39;;;;;;;4.57;1.27;;;;;;;;;;6225175;23;20007;-95
2022/02/13 10:38:05;;;;;;;4.25;1.63;;;;;;;;;;6251929;23;20000;-96
2022/02/13 10:40:32;;;;;;;9.48;3.28;;;;;;;;;;6249472;23;20079;-94
2022/02/13 10:43:09;;;;;;;8.30;2.87;;;;;;;;;;6250633;23;20012;-94
2022/02/13 10:45:36;;;;;;;8.25;2.05;;;;;;;;;;6252390;23;20016;-96
2022/02/13 10:48:04;;;;;;;1.13;0.80;;;;;;;;;;6251815;23;20031;-95
2022/02/13 10:50:31;;;;;;;2.22;0.93;;;;;;;;;;6251412;23;20000;-95
2022/02/13 10:53:01;;;;;;;3.78;1.40;;;;;;;;;;6252642;22;20000;-96
2022/02/13 10:55:28;;;;;;;3.78;1.83;;;;;;;;;;6197899;23;20308;-95
2022/02/13 10:57:58;;;;;;;5.72;1.13;;;;;;;;;;6250442;23;20056;-95
2022/02/13 11:00:27;;;;;;;5.82;1.45;;;;;;;;;;6251646;23;20017;-96
2022/02/13 11:02:54;;;;;;;2.92;1.48;;;;;;;;;;6255169;23;20069;-95
2022/02/13 11:05:21;;;;;;;5.53;1.90;;;;;;;;;;6225688;23;20012;-95
2022/02/13 11:07:49;;;;;;;3.38;1.98;;;;;;;;;;6251923;23;20431;-94
2022/02/13 11:10:21;;;;;;;10.90;2.28;;;;;;;;;;6251723;23;20019;-94
2022/02/13 11:12:50;;;;;;;1.17;0.90;;;;;;;;;;6252050;23;20051;-96
2022/02/13 11:15:17;;;;;;;2.00;1.15;;;;;;;;;;6225290;23;20013;-95
2022/02/13 11:17:44;;;;;;;2.15;1.30;;;;;;;;;;6253524;23;20372;-95
2022/02/13 11:20:17;;;;;;;2.33;1.35;;;;;;;;;;6222619;23;20004;-95
2022/02/13 11:22:45;;;;;;;2.45;0.82;;;;;;;;;;6249716;23;20005;-94
2022/02/13 11:25:13;;;;;;;3.22;1.33;;;;;;;;;;6248857;23;20023;-95
2022/02/13 11:27:53;;;;;;;4.97;1.45;;;;;;;;;;6202819;23;20008;-96
2022/02/13 11:30:44;;;;;;;2.10;0.95;;;16.90;43.50;;;;;;6253836;23;20008;-95
2022/02/13 11:33:30;;;;;;;3.00;1.35;;;16.90;43.00;;;;;;6223067;23;20027;-96
2022/02/13 11:35:58;;;;;;;4.75;1.75;;;;;;;;;;6236198;23;20004;-96
2022/02/13 11:38:51;;;;;;;1.25;0.82;;;16.70;44.10;;;;;;6256104;23;20008;-96
2022/02/13 11:41:20;;;;;;;2.33;0.95;;;;;;;;;;6250336;23;20004;-95
2022/02/13 11:43:48;;;;;;;4.20;1.00;;;;;;;;;;6222439;23;20004;-96
2022/02/13 11:46:27;;;;;;;1.48;0.85;;;;;;;;;;6225804;23;20018;-96
2022/02/13 11:49:02;;;;;;;3.22;1.67;;;;;;;;;;6250698;23;20000;-95
2022/02/13 11:51:46;;;;;;;5.75;1.75;;;;;;;;;;6250773;23;20012;-96
2022/02/13 11:54:31;;;;;;;25.02;1.35;;;;;;;;;;6223302;23;20082;-94
2022/02/13 11:57:07;;;;;;;3.67;2.13;;;;;;;;;;6250995;23;20007;-95
2022/02/13 11:59:52;;;;;;;1.38;1.10;;;;;;;;;;6252894;23;20009;-96
2022/02/13 12:02:37;;;;;;;19.10;2.45;;;;;;;;;;6248744;23;20008;-94
2022/02/13 12:05:15;;;;;;;2.00;1.42;;;;;;;;;;6250854;23;20016;-95
2022/02/13 12:08:09;;;;;;;5.25;0.98;;;;;;;;;;6250532;23;20008;-96
2022/02/13 12:10:39;;;;;;;3.75;2.08;;;;;;;;;;6161278;23;20002;-94
2022/02/13 12:13:10;;;;;;;1.33;1.10;;;;;;;;;;6135938;23;20005;-95
2022/02/13 12:15:37;;;;;;;4.15;1.02;;;;;;;;;;6158070;23;20005;-96
2022/02/13 12:18:07;;;;;;;;;;;17.00;43.50;;;;;;6156516;23;20075;-95
2022/02/13 12:20:34;;;;;;;4.13;1.23;;;;;;;;;;6156740;23;19900;-94
2022/02/13 12:23:05;;;;;;;5.72;1.20;;;;;;;;;;6158137;23;20012;-94
2022/02/13 12:25:33;;;;;;;0.80;0.65;;;;;;;;;;6158825;23;20022;-94
2022/02/13 12:27:59;;;;;;;2.28;1.25;;;;;;;;;;6159988;23;20005;-95
2022/02/13 12:30:26;;;;;;;5.10;1.15;;;;;;;;;;6134840;23;20009;-95
2022/02/13 12:32:57;;;;;;;;;;;17.20;44.70;;;;;;6158357;23;20001;-95
2022/02/13 12:35:41;;;;;;;1.58;0.80;;;;;;;;;;6158459;23;19905;-94
2022/02/13 12:38:07;;;;;;;1.67;1.00;;;;;;;;;;6158181;23;20009;-95
2022/02/13 12:40:37;;;;;;;2.28;1.30;;;;;;;;;;6135243;23;20008;-96
2022/02/13 12:43:10;;;;;;;3.60;1.15;;;;;;;;;;6161484;23;20452;-95
2022/02/13 12:45:38;;;;;;;3.30;1.05;;;;;;;;;;6136508;23;20060;-95
2022/02/13 12:48:05;;;;;;;;;;;16.40;46.30;;;;;;6233819;23;20015;-95
2022/02/13 12:50:35;;;;;;;8.02;1.50;;;;;;;;;;6250166;23;20306;-96
2022/02/13 12:53:03;;;;;;;5.50;1.73;;;;;;;;;;6223893;22;20012;-95
2022/02/13 12:55:30;;;;;;;5.40;1.30;;;;;;;;;;6252976;23;20320;-95
2022/02/13 12:57:57;;;;;;;2.83;1.80;;;;;;;;;;6250858;23;20013;-94
2022/02/13 13:00:28;;;;;;;;;;;15.80;47.10;;;;;;6252076;23;20000;-95
2022/02/13 13:02:54;;;;;;;2.10;1.10;;;;;;;;;;6251918;23;19904;-94
2022/02/13 13:05:30;;;;;;;1.67;1.02;;;;;;;;;;6252138;23;20462;-94
2022/02/13 13:08:11;;;;;;;4.40;1.20;;;;;;;;;;6223824;23;20004;-95
2022/02/13 13:10:58;;;;;;;1.58;1.13;;;;;;;;;;6249164;23;20007;-95
2022/02/13 13:13:27;;;;;;;1.27;1.03;;;;;;;;;;6224610;23;20009;-95
2022/02/13 13:16:08;;;;;;;1.05;0.90;;;;;;;;;;6251416;23;20004;-95
2022/02/13 13:18:39;;;;;;;1.75;1.02;;;;;;;;;;6250137;23;20001;-95
2022/02/13 13:21:15;;;;;;;5.68;1.65;;;;;;;;;;6251793;23;20039;-96
2022/02/13 13:23:58;;;;;;;1.15;1.00;;;;;;;;;;6252212;23;20004;-94
2022/02/13 13:26:24;;;;;;;2.00;1.17;;;;;;;;;;6250311;23;20015;-96
2022/02/13 13:28:54;;;;;;;3.20;1.00;;;;;;;;;;6250138;23;20004;-95
2022/02/13 13:31:23;;;;;;;4.20;1.20;;;;;;;;;;6250987;23;20016;-94
2022/02/13 13:33:49;;;;;;;1.88;1.20;;;;;;;;;;6250582;23;20007;-96
2022/02/13 13:36:28;;;;;;;0.90;0.75;;;;;;;;;;6251492;23;20000;-95
2022/02/13 13:38:54;;;;;;;1.55;0.80;;;;;;;;;;6250848;23;20036;-96
2022/02/13 13:41:30;;;;;;;2.63;1.15;;;;;;;;;;6223128;23;20004;-94
2022/02/13 13:43:56;;;;;;;0.50;0.50;;;;;;;;;;6250281;23;20000;-96
2022/02/13 13:46:26;;;;;;;1.60;0.90;;;;;;;;;;6224359;23;20019;-95
2022/02/13 13:48:52;;;;;;;1.40;0.82;;;;;;;;;;6250911;23;20335;-95
2022/02/13 13:51:19;;;;;;;1.05;0.80;;;;;;;;;;6250990;23;20006;-95
2022/02/13 13:53:45;;;;;;;1.67;0.90;;;;;;;;;;6222461;23;20019;-94
2022/02/13 13:56:11;;;;;;;2.05;1.00;;;;;;;;;;6225238;23;20091;-95
2022/02/13 13:58:37;;;;;;;1.42;0.80;;;;;;;;;;6248242;23;20004;-95
2022/02/13 14:01:03;;;;;;;2.90;1.17;;;;;;;;;;6248996;23;20012;-95
2022/02/13 14:03:30;;;;;;;1.38;1.10;;;;;;;;;;6252946;23;20004;-95
2022/02/13 14:05:56;;;;;;;3.60;0.95;;;;;;;;;;6251315;23;20019;-93
2022/02/13 14:08:22;;;;;;;1.50;0.80;;;;;;;;;;6249682;23;20067;-96
2022/02/13 14:10:49;;;;;;;1.20;0.93;;;;;;;;;;6250573;23;20474;-95
2022/02/13 14:13:16;;;;;;;1.02;0.73;;;;;;;;;;6250513;23;20000;-95
2022/02/13 14:15:42;;;;;;;0.80;0.80;;;;;;;;;;6249764;23;20004;-95
2022/02/13 14:18:08;;;;;;;0.88;0.68;;;;;;;;;;6245633;23;20012;-95
2022/02/13 14:20:34;;;;;;;7.25;0.98;;;;;;;;;;6248517;23;20004;-94
2022/02/13 14:23:00;;;;;;;2.10;1.67;;;;;;;;;;6246437;23;20335;-95
2022/02/13 14:25:26;;;;;;;5.05;1.40;;;;;;;;;;6220722;23;20019;-94
2022/02/13 14:27:53;;;;;;;3.50;1.17;;;;;;;;;;6247031;23;20004;-95
2022/02/13 14:30:19;;;;;;;5.13;1.10;;;;;;;;;;6219926;23;20008;-94
2022/02/13 14:32:45;;;;;;;1.55;1.13;;;;;;;;;;6218941;23;20004;-94
2022/02/13 14:35:12;;;;;;;3.08;1.75;;;;;;;;;;6220183;23;20004;-95
2022/02/13 14:37:38;;;;;;;6.70;2.22;;;;;;;;;;6246452;23;20000;-94
2022/02/13 14:40:05;;;;;;;15.75;2.03;;;;;;;;;;6247561;23;20014;-94
2022/02/13 14:42:32;;;;;;;11.52;2.00;;;;;;;;;;6247080;23;20004;-95
2022/02/13 14:44:58;;;;;;;2.78;1.77;;;;;;;;;;6220285;23;20016;-95